createdAt,value
2023-03-20T00:01:59.951Z,43.17
2023-03-20T00:04:26.691Z,43.72
2023-03-20T00:06:53.436Z,41.38
2023-03-20T00:09:20.168Z,38.17
2023-03-20T00:11:52.633Z,42.38
2023-03-20T00:14:22.636Z,43.80
2023-03-20T00:16:50.803Z,41.28
2023-03-20T00:19:24.555Z,42.03
2023-03-20T00:21:53.026Z,40.92
2023-03-20T00:24:20.407Z,39.35
2023-03-20T00:26:49.167Z,45.05
2023-03-20T00:29:31.154Z,39.15
2023-03-20T00:31:58.961Z,39.50
2023-03-20T00:34:29.507Z,39.65
2023-03-20T00:36:56.682Z,39.90
2023-03-20T00:39:23.806Z,43.03
2023-03-20T00:41:54.722Z,39.97
2023-03-20T00:44:24.487Z,40.30
2023-03-20T00:47:03.400Z,41.10
2023-03-20T00:49:33.335Z,39.10
2023-03-20T00:52:02.067Z,42.03
2023-03-20T00:54:29.005Z,41.03
2023-03-20T00:57:02.676Z,42.22
2023-03-20T00:59:33.282Z,40.08
2023-03-20T01:02:02.555Z,44.75
2023-03-20T01:04:49.730Z,39.67
2023-03-20T01:07:16.418Z,39.25
2023-03-20T01:09:43.100Z,39.53
2023-03-20T01:12:12.865Z,41.55
2023-03-20T01:14:39.669Z,39.60
2023-03-20T01:17:12.461Z,45.45
2023-03-20T01:19:40.689Z,43.75
2023-03-20T01:22:07.865Z,42.10
2023-03-20T01:24:34.590Z,40.63
2023-03-20T01:27:04.080Z,38.72
2023-03-20T01:29:31.679Z,45.92
2023-03-20T01:31:58.377Z,44.40
2023-03-20T01:34:25.423Z,45.78
2023-03-20T01:36:54.533Z,43.35
2023-03-20T01:39:24.435Z,45.13
2023-03-20T01:41:52.995Z,45.33
2023-03-20T01:44:22.969Z,44.30
2023-03-20T01:46:52.093Z,42.72
2023-03-20T01:49:21.611Z,45.67
2023-03-20T01:51:49.549Z,42.25
2023-03-20T01:54:23.071Z,43.83
2023-03-20T01:56:52.498Z,45.97
2023-03-20T01:59:33.637Z,47.70
2023-03-20T02:02:00.572Z,45.15
2023-03-20T02:04:34.634Z,44.90
2023-03-20T02:07:01.544Z,42.97
2023-03-20T02:09:28.272Z,45.75
2023-03-20T02:11:57.663Z,48.03
2023-03-20T02:14:24.526Z,44.67
2023-03-20T02:16:51.317Z,46.25
2023-03-20T02:19:35.438Z,55.88
2023-03-20T02:22:20.806Z,51.63
2023-03-20T02:25:15.483Z,47.58
2023-03-20T02:28:01.314Z,48.38
2023-03-20T02:31:01.346Z,49.95
2023-03-20T02:33:58.733Z,51.08
2023-03-20T02:36:41.000Z,46.70
2023-03-20T02:39:23.624Z,53.20
2023-03-20T02:42:08.382Z,49.75
2023-03-20T02:44:58.848Z,49.45
2023-03-20T02:47:39.428Z,48.53
2023-03-20T02:50:32.468Z,50.15
2023-03-20T02:53:23.984Z,52.17
2023-03-20T02:56:09.500Z,49.22
2023-03-20T02:58:50.613Z,52.92
2023-03-20T03:01:35.613Z,48.65
2023-03-20T03:04:11.153Z,54.60
2023-03-20T03:09:33.096Z,52.78
2023-03-20T03:12:25.627Z,53.83
2023-03-20T03:15:15.637Z,51.10
2023-03-20T03:17:44.781Z,53.90
2023-03-20T03:20:32.625Z,49.40
2023-03-20T03:23:00.458Z,55.95
2023-03-20T03:25:33.127Z,53.90
2023-03-20T03:28:45.793Z,50.38
2023-03-20T03:31:15.299Z,50.58
2023-03-20T03:33:52.032Z,48.88
2023-03-20T03:36:55.362Z,52.75
2023-03-20T03:39:39.154Z,48.67
2023-03-20T03:42:20.957Z,51.75
2023-03-20T03:45:19.289Z,52.17
2023-03-20T03:48:01.163Z,54.00
2023-03-20T03:50:51.006Z,51.95
2023-03-20T03:53:25.231Z,48.88
2023-03-20T03:55:56.599Z,53.00
2023-03-20T03:58:53.781Z,56.90
2023-03-20T04:01:23.087Z,55.17
2023-03-20T04:04:00.940Z,55.88
2023-03-20T04:06:28.549Z,51.03
2023-03-20T04:08:55.582Z,56.33
2023-03-20T04:11:24.800Z,51.97
2023-03-20T04:13:52.628Z,53.53
2023-03-20T04:16:21.620Z,53.83
2023-03-20T04:18:48.527Z,57.30
2023-03-20T04:21:16.191Z,59.63
2023-03-20T04:23:43.080Z,57.13
2023-03-20T04:26:10.107Z,59.45
2023-03-20T04:28:37.073Z,60.17
2023-03-20T04:31:04.584Z,54.40
2023-03-20T04:33:31.289Z,56.95
2023-03-20T04:35:58.203Z,55.25
2023-03-20T04:38:25.053Z,52.35
2023-03-20T04:40:52.275Z,53.00
2023-03-20T04:43:19.420Z,57.25
2023-03-20T04:45:46.272Z,49.88
2023-03-20T04:48:13.220Z,52.47
2023-03-20T04:50:39.945Z,56.83
2023-03-20T04:53:06.730Z,59.60
2023-03-20T04:55:33.658Z,53.10
2023-03-20T04:58:00.482Z,54.90
2023-03-20T05:00:27.355Z,52.40
2023-03-20T05:02:54.062Z,57.05
2023-03-20T05:05:21.008Z,57.85
2023-03-20T05:07:47.836Z,57.25
2023-03-20T05:10:14.554Z,62.08
2023-03-20T05:12:41.371Z,54.63
2023-03-20T05:15:08.753Z,54.00
2023-03-20T05:17:35.440Z,50.67
2023-03-20T05:20:02.255Z,55.33
2023-03-20T05:22:28.972Z,56.13
2023-03-20T05:24:56.357Z,56.42
2023-03-20T05:27:23.075Z,51.38
2023-03-20T05:29:49.709Z,57.38
2023-03-20T05:32:16.524Z,52.72
2023-03-20T05:34:43.221Z,59.88
2023-03-20T05:37:10.164Z,53.97
2023-03-20T05:39:36.807Z,50.85
2023-03-20T05:42:03.675Z,54.92
2023-03-20T05:44:30.785Z,53.10
2023-03-20T05:46:57.670Z,56.47
2023-03-20T05:49:24.427Z,57.00
2023-03-20T05:51:51.161Z,59.65
2023-03-20T05:54:18.315Z,56.67
2023-03-20T05:56:45.095Z,57.38
2023-03-20T05:59:12.279Z,54.50
2023-03-20T06:01:38.936Z,52.53
2023-03-20T06:04:05.943Z,55.05
2023-03-20T06:06:32.768Z,60.45
2023-03-20T06:08:59.525Z,57.63
2023-03-20T06:11:26.362Z,56.80
2023-03-20T06:13:55.645Z,58.88
2023-03-20T06:16:22.363Z,57.78
2023-03-20T06:18:49.271Z,56.03
2023-03-20T06:21:16.207Z,53.28
2023-03-20T06:23:42.980Z,59.13
2023-03-20T06:26:09.795Z,55.30
2023-03-20T06:28:37.232Z,57.42
2023-03-20T06:31:04.075Z,47.75
2023-03-20T06:33:30.850Z,52.22
2023-03-20T06:35:57.764Z,52.55
2023-03-20T06:38:24.480Z,50.47
2023-03-20T06:40:51.157Z,52.05
2023-03-20T06:43:18.632Z,48.78
2023-03-20T06:45:45.527Z,53.65
2023-03-20T06:48:12.377Z,54.85
2023-03-20T06:50:40.376Z,51.97
2023-03-20T06:53:07.126Z,52.63
2023-03-20T06:55:34.004Z,54.67
2023-03-20T06:58:00.946Z,50.58
2023-03-20T07:00:27.702Z,50.72
2023-03-20T07:02:54.542Z,51.53
2023-03-20T07:05:21.327Z,54.45
2023-03-20T07:07:48.112Z,52.42
2023-03-20T07:10:14.896Z,49.13
2023-03-20T07:12:41.576Z,50.25
2023-03-20T07:15:08.584Z,52.03
2023-03-20T07:17:35.678Z,50.95
2023-03-20T07:20:02.921Z,48.83
2023-03-20T07:22:31.588Z,49.55
2023-03-20T07:24:58.330Z,50.90
2023-03-20T07:27:25.289Z,47.92
2023-03-20T07:29:52.323Z,53.30
2023-03-20T07:32:19.390Z,49.67
2023-03-20T07:34:47.548Z,48.78
2023-03-20T07:37:14.320Z,47.38
2023-03-20T07:39:41.410Z,45.75
2023-03-20T07:42:08.282Z,45.97
2023-03-20T07:44:35.545Z,46.53
2023-03-20T07:47:02.360Z,44.83
2023-03-20T07:49:29.027Z,41.15
2023-03-20T07:51:56.958Z,39.22
2023-03-20T07:54:24.213Z,42.63
2023-03-20T07:56:51.035Z,43.45
2023-03-20T07:59:18.024Z,43.95
2023-03-20T08:01:45.333Z,43.88
2023-03-20T08:04:12.254Z,47.63
2023-03-20T08:06:39.537Z,51.08
2023-03-20T08:09:06.917Z,42.70
2023-03-20T08:11:34.757Z,43.85
2023-03-20T08:14:01.547Z,43.95
2023-03-20T08:16:28.416Z,48.75
2023-03-20T08:19:00.954Z,49.05
2023-03-20T08:21:29.205Z,53.40
2023-03-20T08:23:56.391Z,46.50
2023-03-20T08:26:23.826Z,48.55
2023-03-20T08:28:51.435Z,52.58
2023-03-20T08:31:19.094Z,50.20
2023-03-20T08:33:46.914Z,49.53
2023-03-20T08:36:15.593Z,53.28
2023-03-20T08:38:43.117Z,51.47
2023-03-20T08:41:09.866Z,46.85
2023-03-20T08:43:36.684Z,51.15
2023-03-20T08:46:04.172Z,45.97
2023-03-20T08:48:30.856Z,47.38
2023-03-20T08:50:57.766Z,45.13
2023-03-20T08:53:24.596Z,45.97
2023-03-20T08:55:54.430Z,46.08
2023-03-20T08:58:21.719Z,52.42
2023-03-20T09:00:48.642Z,42.10
2023-03-20T09:03:17.544Z,42.55
2023-03-20T09:05:46.584Z,39.28
2023-03-20T09:08:14.086Z,45.05
2023-03-20T09:10:41.166Z,45.22
2023-03-20T09:13:25.805Z,41.25
2023-03-20T09:15:55.131Z,38.15
2023-03-20T09:18:22.720Z,37.92
2023-03-20T09:20:49.408Z,41.70
2023-03-20T09:23:16.405Z,38.33
2023-03-20T09:25:43.254Z,42.55
2023-03-20T09:28:10.085Z,42.20
2023-03-20T09:30:37.554Z,43.63
2023-03-20T09:33:04.866Z,43.65
2023-03-20T09:35:31.936Z,45.35
2023-03-20T09:37:58.670Z,45.47
2023-03-20T09:40:47.827Z,53.45
2023-03-20T09:43:36.344Z,55.40
2023-03-20T09:46:18.504Z,47.33
2023-03-20T09:49:00.271Z,50.85
2023-03-20T09:51:34.829Z,49.42
2023-03-20T09:54:11.296Z,51.55
2023-03-20T09:56:38.161Z,50.13
2023-03-20T09:59:06.665Z,50.63
2023-03-20T10:01:58.549Z,51.55
2023-03-20T10:04:30.064Z,54.95
2023-03-20T10:06:56.954Z,52.00
2023-03-20T10:09:28.233Z,56.60
2023-03-20T10:12:09.228Z,56.40
2023-03-20T10:14:57.370Z,58.78
2023-03-20T10:17:48.764Z,54.13
2023-03-20T10:20:28.224Z,54.65
2023-03-20T10:23:13.263Z,55.92
2023-03-20T10:25:51.043Z,56.03
2023-03-20T10:28:24.975Z,58.00
2023-03-20T10:31:06.664Z,53.95
2023-03-20T10:33:56.328Z,47.33
2023-03-20T10:37:06.691Z,50.38
2023-03-20T10:39:54.945Z,44.70
2023-03-20T10:42:27.698Z,45.28
2023-03-20T10:45:04.295Z,45.15
2023-03-20T10:47:36.501Z,44.17
2023-03-20T10:50:17.057Z,44.33
2023-03-20T10:52:45.977Z,48.25
2023-03-20T10:55:20.865Z,45.13
2023-03-20T10:58:03.257Z,43.93
2023-03-20T11:00:30.128Z,44.67
2023-03-20T11:02:56.885Z,42.05
2023-03-20T11:05:34.267Z,50.72
2023-03-20T11:08:11.386Z,46.35
2023-03-20T11:10:39.619Z,43.60
2023-03-20T11:13:30.486Z,45.13
2023-03-20T11:16:08.333Z,45.38
2023-03-20T11:18:35.110Z,42.38
2023-03-20T11:21:03.021Z,45.95
2023-03-20T11:23:34.432Z,45.53
2023-03-20T11:26:07.205Z,40.30
2023-03-20T11:28:35.514Z,38.70
2023-03-20T11:31:11.197Z,40.83
2023-03-20T11:33:41.186Z,40.30
2023-03-20T11:36:29.834Z,35.15
2023-03-20T11:39:11.689Z,43.85
2023-03-20T11:41:45.730Z,39.67
2023-03-20T11:44:42.622Z,37.95
2023-03-20T11:47:17.259Z,33.25
2023-03-20T11:49:52.874Z,39.33
2023-03-20T11:52:34.976Z,38.28
2023-03-20T11:55:20.177Z,34.78
2023-03-20T11:57:48.668Z,35.67
2023-03-20T12:00:15.895Z,33.75
2023-03-20T12:02:44.758Z,36.20
2023-03-20T12:05:30.030Z,33.83
2023-03-20T12:08:18.739Z,36.60
2023-03-20T12:10:54.496Z,34.70
2023-03-20T12:13:34.345Z,36.63
2023-03-20T12:16:13.570Z,35.85
2023-03-20T12:18:54.854Z,34.58
2023-03-20T12:21:28.434Z,32.70
2023-03-20T12:24:17.543Z,33.25
2023-03-20T12:27:05.541Z,35.70
2023-03-20T12:30:06.855Z,29.70
2023-03-20T12:33:02.528Z,31.23
2023-03-20T12:35:36.751Z,37.13
2023-03-20T12:38:04.730Z,32.08
2023-03-20T12:40:45.461Z,38.25
2023-03-20T12:43:25.495Z,33.40
2023-03-20T12:46:25.583Z,36.83
2023-03-20T12:49:06.312Z,36.58
2023-03-20T12:51:47.630Z,32.83
2023-03-20T12:54:17.420Z,42.05
2023-03-20T12:56:56.668Z,37.80
2023-03-20T12:59:43.066Z,41.00
2023-03-20T13:02:30.194Z,35.80
2023-03-20T13:05:07.778Z,163.80
2023-03-20T13:07:47.718Z,31.08
2023-03-20T13:10:20.660Z,36.97
2023-03-20T13:12:50.438Z,31.45
2023-03-20T13:15:25.746Z,34.75
2023-03-20T13:20:36.623Z,35.67
2023-03-20T13:23:27.515Z,36.60
2023-03-20T13:26:03.129Z,36.65
2023-03-20T13:28:31.088Z,37.00
2023-03-20T13:31:16.454Z,33.15
2023-03-20T13:34:00.506Z,32.00
2023-03-20T13:36:42.826Z,32.15
2023-03-20T13:39:28.838Z,36.17
2023-03-20T13:41:57.255Z,38.35
2023-03-20T13:44:28.006Z,35.63
2023-03-20T13:47:02.396Z,37.35
2023-03-20T13:49:42.454Z,35.88
2023-03-20T13:52:12.013Z,33.78
2023-03-20T13:55:21.997Z,28.45
2023-03-20T13:58:13.050Z,35.20
2023-03-20T14:00:45.685Z,34.08
2023-03-20T14:03:17.309Z,30.30
2023-03-20T14:05:44.821Z,35.42
2023-03-20T14:08:34.014Z,40.65
2023-03-20T14:11:12.631Z,39.03
2023-03-20T14:13:41.808Z,36.83
2023-03-20T14:16:10.401Z,36.92
2023-03-20T14:18:38.055Z,39.60
2023-03-20T14:21:13.084Z,36.28
2023-03-20T14:23:46.105Z,36.92
2023-03-20T14:26:26.123Z,36.05
2023-03-20T14:29:19.920Z,34.85
2023-03-20T14:31:52.091Z,35.78
2023-03-20T14:34:24.592Z,37.55
2023-03-20T14:36:51.474Z,37.47
2023-03-20T14:39:22.068Z,36.47
2023-03-20T14:42:01.060Z,36.33
2023-03-20T14:45:01.953Z,38.80
2023-03-20T14:47:53.355Z,38.92
2023-03-20T14:50:30.513Z,40.53
2023-03-20T14:53:20.098Z,37.50
2023-03-20T14:55:51.232Z,41.25
2023-03-20T14:58:43.991Z,41.03
2023-03-20T15:01:22.792Z,37.65
2023-03-20T15:04:06.708Z,40.13
2023-03-20T15:06:35.671Z,38.00
2023-03-20T15:09:08.075Z,37.58
2023-03-20T15:11:35.686Z,39.13
2023-03-20T15:14:06.463Z,36.72
2023-03-20T15:16:37.187Z,34.70
2023-03-20T15:19:18.245Z,43.72
2023-03-20T15:21:48.067Z,43.10
2023-03-20T15:24:28.979Z,35.22
2023-03-20T15:26:59.797Z,36.08
2023-03-20T15:29:27.993Z,41.20
2023-03-20T15:32:13.535Z,40.60
2023-03-20T15:34:42.509Z,44.95
2023-03-20T15:37:16.730Z,36.80
2023-03-20T15:39:46.263Z,39.63
2023-03-20T15:42:17.191Z,39.58
2023-03-20T15:44:48.041Z,42.65
2023-03-20T15:47:23.278Z,42.30
2023-03-20T15:50:00.073Z,42.20
2023-03-20T15:52:38.940Z,41.72
2023-03-20T15:55:12.076Z,38.10
2023-03-20T15:57:41.525Z,36.03
2023-03-20T16:00:20.226Z,34.00
2023-03-20T16:02:49.093Z,40.42
2023-03-20T16:05:17.896Z,30.75
2023-03-20T16:07:44.922Z,34.40
2023-03-20T16:10:36.121Z,31.33
2023-03-20T16:13:06.562Z,31.70
2023-03-20T16:15:34.133Z,31.80
2023-03-20T16:18:04.660Z,34.65
2023-03-20T16:20:37.283Z,38.17
2023-03-20T16:23:07.725Z,37.58
2023-03-20T16:25:36.318Z,37.00
2023-03-20T16:28:07.007Z,34.47
2023-03-20T16:30:35.597Z,40.35
2023-03-20T16:33:10.010Z,36.13
2023-03-20T16:35:44.630Z,40.65
2023-03-20T16:38:31.146Z,41.70
2023-03-20T16:41:22.585Z,37.70
2023-03-20T16:43:50.532Z,44.47
2023-03-20T16:46:24.963Z,42.20
2023-03-20T16:49:12.931Z,39.25
2023-03-20T16:51:42.874Z,39.42
2023-03-20T16:54:23.267Z,41.05
2023-03-20T16:56:54.665Z,38.90
2023-03-20T16:59:21.573Z,36.67
2023-03-20T17:01:49.447Z,36.50
2023-03-20T17:04:22.213Z,40.42
2023-03-20T17:06:52.546Z,40.13
2023-03-20T17:09:19.300Z,38.97
2023-03-20T17:11:49.483Z,37.92
2023-03-20T17:14:17.018Z,44.70
2023-03-20T17:16:44.267Z,39.35
2023-03-20T17:19:17.642Z,41.40
2023-03-20T17:21:46.409Z,39.33
2023-03-20T17:24:14.889Z,38.38
2023-03-20T17:26:44.144Z,36.55
2023-03-20T17:29:12.149Z,41.65
2023-03-20T17:31:39.298Z,42.15
2023-03-20T17:34:06.359Z,41.05
2023-03-20T17:36:34.834Z,39.35
2023-03-20T17:39:02.098Z,39.40
2023-03-20T17:41:29.578Z,41.92
2023-03-20T17:43:56.717Z,38.72
2023-03-20T17:46:27.225Z,43.00
2023-03-20T17:49:15.099Z,41.40
2023-03-20T17:51:42.946Z,40.15
2023-03-20T17:54:09.758Z,41.53
2023-03-20T17:56:36.837Z,38.17
2023-03-20T17:59:04.039Z,39.65
2023-03-20T18:01:32.743Z,44.28
2023-03-20T18:03:59.747Z,45.70
2023-03-20T18:06:29.644Z,38.58
2023-03-20T18:08:57.640Z,44.72
2023-03-20T18:11:25.134Z,43.95
2023-03-20T18:13:52.194Z,44.97
2023-03-20T18:16:24.370Z,44.08
2023-03-20T18:18:52.574Z,45.58
2023-03-20T18:21:19.587Z,41.22
2023-03-20T18:23:46.885Z,48.35
2023-03-20T18:26:33.935Z,47.50
2023-03-20T18:29:01.047Z,47.92
2023-03-20T18:31:27.953Z,44.67
2023-03-20T18:33:54.818Z,48.05
2023-03-20T18:36:25.355Z,45.28
2023-03-20T18:38:52.570Z,44.63
2023-03-20T18:41:19.937Z,54.92
2023-03-20T18:43:46.762Z,47.63
2023-03-20T18:46:14.429Z,44.65
2023-03-20T18:48:42.190Z,49.55
2023-03-20T18:51:09.252Z,42.38
2023-03-20T18:53:36.155Z,46.08
2023-03-20T18:56:04.057Z,45.85
2023-03-20T18:58:31.394Z,46.40
2023-03-20T19:01:00.304Z,50.15
2023-03-20T19:03:28.549Z,49.40
2023-03-20T19:05:57.632Z,43.08
2023-03-20T19:08:24.644Z,47.65
2023-03-20T19:10:51.714Z,47.67
2023-03-20T19:13:20.334Z,48.78
2023-03-20T19:15:47.325Z,48.38
2023-03-20T19:18:18.002Z,53.70
2023-03-20T19:20:48.130Z,49.88
2023-03-20T19:23:19.718Z,46.50
2023-03-20T19:25:51.724Z,47.83
2023-03-20T19:28:34.598Z,50.15
2023-03-20T19:31:05.150Z,51.92
2023-03-20T19:33:33.291Z,49.35
2023-03-20T19:36:03.753Z,48.20
2023-03-20T19:38:32.256Z,52.50
2023-03-20T19:40:59.875Z,55.15
2023-03-20T19:43:28.955Z,51.63
2023-03-20T19:45:59.089Z,48.90
2023-03-20T19:48:46.150Z,52.17
2023-03-20T19:51:26.911Z,55.22
2023-03-20T19:53:54.547Z,53.13
2023-03-20T19:56:22.652Z,49.63
2023-03-20T19:58:50.040Z,48.45
2023-03-20T20:01:19.942Z,53.08
2023-03-20T20:03:47.015Z,58.03
2023-03-20T20:06:14.754Z,53.42
2023-03-20T20:08:48.500Z,53.63
2023-03-20T20:11:20.610Z,53.88
2023-03-20T20:16:40.156Z,52.42
2023-03-20T20:19:07.155Z,54.50
2023-03-20T20:24:21.410Z,52.08
2023-03-20T20:26:54.944Z,53.97
2023-03-20T20:29:28.071Z,53.45
2023-03-20T20:31:54.867Z,56.30
2023-03-20T20:39:55.619Z,56.35
2023-03-20T20:42:23.050Z,57.47
2023-03-20T20:44:50.246Z,60.97
2023-03-20T20:47:17.505Z,60.72
2023-03-20T20:49:46.844Z,56.00
2023-03-20T20:52:14.784Z,60.53
2023-03-20T20:54:42.172Z,62.45
2023-03-20T20:57:14.247Z,61.80
2023-03-20T20:59:41.329Z,58.72
2023-03-20T21:02:12.990Z,57.08
2023-03-20T21:04:41.148Z,64.53
2023-03-20T21:07:11.696Z,58.33
2023-03-20T21:09:39.491Z,61.90
2023-03-20T21:12:08.242Z,62.15
2023-03-20T21:14:35.653Z,65.10
2023-03-20T21:17:03.264Z,61.55
2023-03-20T21:19:37.076Z,61.58
2023-03-20T21:22:05.410Z,61.70
2023-03-20T21:24:34.302Z,64.47
2023-03-20T21:27:08.126Z,62.53
2023-03-20T21:29:34.964Z,61.53
2023-03-20T21:32:01.754Z,62.53
2023-03-20T21:34:29.190Z,66.57
2023-03-20T21:36:57.849Z,69.32
2023-03-20T21:39:27.575Z,65.50
2023-03-20T21:41:54.548Z,61.22
2023-03-20T21:44:56.210Z,62.55
2023-03-20T21:50:45.969Z,63.63
2023-03-20T21:53:18.057Z,64.55
2023-03-20T21:58:53.774Z,67.93
2023-03-20T22:04:44.869Z,70.82
2023-03-20T22:07:24.189Z,67.32
2023-03-20T22:15:33.790Z,70.78
2023-03-20T22:18:25.124Z,68.00
2023-03-20T22:27:01.673Z,66.95
2023-03-20T22:40:53.440Z,71.18
2023-03-20T22:43:50.887Z,72.13
2023-03-20T22:45:52.617Z,78.07
2023-03-20T22:48:26.579Z,78.15
2023-03-20T22:50:53.498Z,73.32
2023-03-20T22:53:20.285Z,78.45
2023-03-20T22:55:50.641Z,70.80
2023-03-20T22:58:17.283Z,72.80
2023-03-20T23:00:44.155Z,73.50
2023-03-20T23:03:25.745Z,73.75
2023-03-20T23:05:57.839Z,74.93
2023-03-20T23:08:25.007Z,74.55
2023-03-20T23:10:51.941Z,69.53
2023-03-20T23:13:20.392Z,74.10
2023-03-20T23:15:48.311Z,71.72
2023-03-20T23:18:15.355Z,69.68
2023-03-20T23:20:42.441Z,75.97
2023-03-20T23:23:09.648Z,75.68
2023-03-20T23:25:39.772Z,72.80
2023-03-20T23:28:09.312Z,72.80
2023-03-20T23:30:45.380Z,77.30
2023-03-20T23:33:16.571Z,71.25
2023-03-20T23:35:43.355Z,78.63
2023-03-20T23:38:10.315Z,80.18
2023-03-20T23:40:37.699Z,79.75
2023-03-20T23:43:04.618Z,77.40
2023-03-20T23:45:31.400Z,76.10
2023-03-20T23:47:58.123Z,76.90
2023-03-20T23:50:31.967Z,72.07
2023-03-20T23:53:17.621Z,72.18
2023-03-20T23:55:47.679Z,72.40
2023-03-20T23:58:15.656Z,76.88
